Time;durP1;ratioP1;P1;durP2;ratioP2;P2;SDS_P1;SDS_P2;PMS_P1;PMS_P2;Temp;Humidity;BMP_temperature;BMP_pressure;BME280_temperature;BME280_humidity;BME280_pressure;Samples;Min_cycle;Max_cycle;Signal;HPM_P1;HPM_P2
2023/10/14 00:01:03;;;;;;;6.05;4.88;;;;;;;19.37;84.43;96284.22;5063650;28;20213;-53
2023/10/14 00:03:32;;;;;;;5.28;4.78;;;;;;;19.39;84.37;96292.88;5063443;28;20199;-54
2023/10/14 00:06:00;;;;;;;5.68;4.97;;;;;;;19.40;83.56;96302.56;5062369;28;20643;-53
2023/10/14 00:08:31;;;;;;;6.60;5.20;;;;;;;19.41;83.23;96285.50;5063082;28;20202;-53
2023/10/14 00:11:02;;;;;;;5.38;4.90;;;;;;;19.42;83.84;96288.97;5062435;28;20227;-53
2023/10/14 00:13:32;;;;;;;6.63;4.70;;;;;;;19.49;82.33;96293.31;5062316;28;20199;-55
2023/10/14 00:16:01;;;;;;;6.80;5.00;;;;;;;19.50;82.16;96283.41;5062908;28;20202;-53
2023/10/14 00:18:28;;;;;;;7.03;4.95;;;;;;;19.54;81.37;96279.28;5062956;28;20257;-52
2023/10/14 00:20:55;;;;;;;5.88;4.50;;;;;;;19.49;82.19;96277.22;5062511;28;20543;-53
2023/10/14 00:23:23;;;;;;;5.70;5.07;;;;;;;19.49;82.20;96266.50;5061781;28;20297;-52
2023/10/14 00:25:51;;;;;;;5.53;4.60;;;;;;;19.57;80.80;96263.59;5061988;28;20309;-53
2023/10/14 00:28:19;;;;;;;5.63;5.00;;;;;;;19.59;80.99;96255.38;5062010;28;20199;-53
2023/10/14 00:30:46;;;;;;;8.13;4.82;;;;;;;19.60;80.60;96251.63;5061919;28;20210;-52
2023/10/14 00:33:13;;;;;;;5.30;4.80;;;;;;;19.58;80.99;96241.13;5061263;28;20207;-52
2023/10/14 00:35:41;;;;;;;5.30;4.80;;;;;;;19.54;81.72;96247.94;5061145;28;20234;-54
2023/10/14 00:38:10;;;;;;;6.40;4.93;;;;;;;19.55;81.95;96259.50;5061114;28;20638;-53
2023/10/14 00:40:38;;;;;;;6.28;4.38;;;;;;;19.60;81.36;96279.28;5062115;28;20247;-53
2023/10/14 00:43:05;;;;;;;5.55;5.05;;;;;;;19.56;81.54;96277.22;5061754;28;20203;-54
2023/10/14 00:45:42;;;;;;;5.50;4.65;;;;;;;19.51;82.63;96275.16;5061514;28;20207;-51
2023/10/14 00:48:12;;;;;;;5.75;4.38;;;;;;;19.53;82.35;96275.78;5061552;28;20215;-54
2023/10/14 00:50:41;;;;;;;5.57;4.90;;;;;;;19.46;82.80;96269.59;5061340;28;20214;-53
2023/10/14 00:53:08;;;;;;;9.77;4.72;;;;;;;19.44;82.92;96266.31;5060866;28;20319;-53
2023/10/14 00:55:53;;;;;;;8.60;4.57;;;;;;;19.42;82.56;96271.03;5061383;28;20230;-52
2023/10/14 00:58:23;;;;;;;6.60;5.28;;;;;;;19.41;83.05;96277.44;5060856;28;20750;-53
2023/10/14 01:01:00;;;;;;;5.47;4.70;;;;;;;19.36;82.96;96269.16;5061222;28;20214;-54
2023/10/14 01:03:30;;;;;;;5.10;4.60;;;;;;;19.35;82.80;96286.25;5061556;28;20218;-54
2023/10/14 01:05:57;;;;;;;5.22;4.65;;;;;;;19.35;82.76;96297.00;5061002;28;20616;-53
2023/10/14 01:08:25;;;;;;;6.20;4.45;;;;;;;19.32;83.45;96289.38;5061017;28;20217;-52
2023/10/14 01:10:52;;;;;;;5.13;4.70;;;;;;;19.26;86.25;96291.03;5061085;28;20227;-52
2023/10/14 01:13:22;;;;;;;6.40;5.00;;;;;;;19.29;84.23;96287.09;5061619;28;20238;-53
2023/10/14 01:15:58;;;;;;;7.22;5.00;;;;;;;19.29;83.38;96287.09;5061015;28;20695;-52
2023/10/14 01:18:31;;;;;;;6.40;5.00;;;;;;;19.36;83.81;96293.28;5061489;28;20195;-53
2023/10/14 01:20:57;;;;;;;5.40;4.90;;;;;;;19.45;81.41;96292.06;5061274;28;20234;-52
2023/10/14 01:23:27;;;;;;;6.50;4.88;;;;;;;19.46;82.20;96283.00;5061811;28;20511;-52
2023/10/14 01:25:54;;;;;;;10.52;4.70;;;;;;;19.61;80.87;96278.25;5061320;28;20580;-53
2023/10/14 01:28:29;;;;;;;5.10;4.60;;;;;;;19.78;79.23;96295.56;5061422;28;20771;-52
2023/10/14 01:31:11;;;;;;;7.70;4.90;;;;;;;19.76;80.38;96273.50;5061597;28;20216;-54
2023/10/14 01:33:38;;;;;;;5.97;4.28;;;;;;;19.82;80.94;96261.91;5061545;28;20223;-54
2023/10/14 01:36:08;;;;;;;5.82;4.43;;;;;;;19.75;82.76;96274.53;5060349;28;20217;-52
2023/10/14 01:38:39;;;;;;;5.85;4.50;;;;;;;19.80;83.79;96263.97;5059911;28;20257;-54
2023/10/14 01:41:05;;;;;;;8.02;4.30;;;;;;;19.67;84.97;96266.69;5061387;28;20251;-53
2023/10/14 01:43:32;;;;;;;5.88;4.25;;;;;;;19.74;84.15;96259.44;5067727;28;20206;-53
2023/10/14 01:46:08;;;;;;;5.70;4.53;;;;;;;19.60;85.62;96254.31;5073659;28;20338;-53
2023/10/14 01:48:38;;;;;;;5.18;4.10;;;;;;;19.54;86.52;96237.19;5073320;28;20198;-54
2023/10/14 01:51:05;;;;;;;5.85;3.83;;;;;;;19.44;87.99;96235.97;5068524;28;20203;-54
2023/10/14 01:53:34;;;;;;;7.03;4.55;;;;;;;19.34;89.08;96249.78;5067176;28;20207;-52
2023/10/14 01:56:03;;;;;;;4.28;3.83;;;;;;;19.43;89.02;96245.88;5068576;28;20241;-54
2023/10/14 01:58:32;;;;;;;4.30;3.90;;;;;;;19.30;89.73;96245.84;5067916;28;20248;-52
2023/10/14 02:01:07;;;;;;;5.32;4.43;;;;;;;19.24;90.01;96246.66;5067791;28;20207;-60
2023/10/14 02:03:41;;;;;;;4.85;4.35;;;;;;;19.16;90.31;96236.16;5069114;28;20194;-55
2023/10/14 02:06:16;;;;;;;4.10;3.70;;;;;;;19.10;91.35;96235.13;5066981;28;20258;-53
2023/10/14 02:08:42;;;;;;;6.95;4.75;;;;;;;19.05;91.19;96236.78;5067518;28;20194;-54
2023/10/14 02:11:11;;;;;;;4.93;4.60;;;;;;;19.06;91.48;96225.03;5066274;28;20249;-52
2023/10/14 02:13:37;;;;;;;7.10;4.97;;;;;;;19.09;90.59;96229.97;5066413;28;20207;-53
2023/10/14 02:16:08;;;;;;;7.57;4.60;;;;;;;19.06;90.76;96223.16;5066173;28;20708;-52
2023/10/14 02:18:36;;;;;;;6.40;4.50;;;;;;;18.99;91.13;96198.22;5066125;28;20209;-54
2023/10/14 02:21:11;;;;;;;5.63;4.70;;;;;;;19.03;91.14;96212.03;5066141;28;20207;-53
2023/10/14 02:23:45;;;;;;;6.95;4.55;;;;;;;19.17;88.81;96219.03;5065575;28;20257;-53
2023/10/14 02:26:16;;;;;;;5.57;4.50;;;;;;;19.08;89.87;96209.56;5066054;28;20195;-52
2023/10/14 02:28:45;;;;;;;6.22;4.75;;;;;;;19.03;90.92;96214.69;5065578;28;20252;-54
2023/10/14 02:31:17;;;;;;;6.50;4.63;;;;;;;19.03;91.22;96212.03;5068585;28;20210;-53
2023/10/14 02:33:45;;;;;;;5.18;4.68;;;;;;;19.03;90.08;96217.38;5068978;28;21609;-54
2023/10/14 02:36:14;;;;;;;5.03;4.50;;;;;;;19.01;89.25;96209.56;5067530;28;20549;-53
2023/10/14 02:38:41;;;;;;;5.47;4.47;;;;;;;19.05;89.36;96215.34;5066271;28;20693;-53
2023/10/14 02:41:08;;;;;;;4.90;4.40;;;;;;;19.02;88.13;96213.06;5067643;28;20218;-52
2023/10/14 02:43:38;;;;;;;6.50;4.40;;;;;;;19.11;87.70;96217.19;5069286;28;20211;-53
2023/10/14 02:46:10;;;;;;;6.55;4.88;;;;;;;19.09;88.13;96214.72;5067516;28;20297;-54
2023/10/14 02:48:52;;;;;;;5.50;4.82;;;;;;;19.11;87.97;96217.19;5066886;28;20700;-54
2023/10/14 02:51:21;;;;;;;5.53;4.93;;;;;;;19.09;87.57;96227.31;5068197;28;20202;-53
2023/10/14 02:53:55;;;;;;;6.20;4.35;;;;;;;19.12;87.19;96218.84;5066784;28;20628;-53
2023/10/14 02:56:33;;;;;;;4.93;4.40;;;;;;;19.13;86.99;96229.34;5065300;28;20585;-53
2023/10/14 02:59:01;;;;;;;4.53;4.00;;;;;;;19.17;86.67;96230.59;5064051;28;20269;-54
2023/10/14 03:01:31;;;;;;;5.95;4.85;;;;;;;19.20;85.14;96229.38;5063955;28;20199;-54
2023/10/14 03:04:07;;;;;;;5.00;4.38;;;;;;;19.21;85.88;96241.72;5063762;28;20212;-53
2023/10/14 03:06:46;;;;;;;5.47;4.82;;;;;;;19.25;85.49;96232.25;5063181;28;20210;-54
2023/10/14 03:09:17;;;;;;;5.00;4.40;;;;;;;19.31;84.28;96226.88;5063066;28;20198;-53
2023/10/14 03:11:44;;;;;;;6.25;4.25;;;;;;;19.31;84.81;96231.41;5063406;28;20213;-52
2023/10/14 03:14:12;;;;;;;7.20;4.57;;;;;;;19.27;85.01;96220.25;5063424;28;20297;-53
2023/10/14 03:16:38;;;;;;;7.53;4.70;;;;;;;19.26;85.71;96215.13;5063305;28;20207;-54
2023/10/14 03:19:07;;;;;;;5.70;4.57;;;;;;;19.32;86.06;96214.28;5063230;28;20298;-52
2023/10/14 03:21:36;;;;;;;7.05;4.65;;;;;;;19.25;86.02;96221.50;5062309;28;20212;-52
2023/10/14 03:24:06;;;;;;;7.68;5.00;;;;;;;19.29;85.66;96225.44;5063150;28;20211;-53
2023/10/14 03:26:32;;;;;;;6.32;4.63;;;;;;;19.25;86.50;96224.19;5063076;28;20210;-53
2023/10/14 03:29:04;;;;;;;8.00;4.82;;;;;;;19.16;87.14;96220.91;5063043;28;20676;-52
2023/10/14 03:31:35;;;;;;;4.72;4.30;;;;;;;19.18;87.00;96237.59;5062287;28;20532;-53
2023/10/14 03:34:08;;;;;;;5.53;5.00;;;;;;;19.15;85.70;96231.84;5062866;28;20259;-53
2023/10/14 03:36:35;;;;;;;4.88;4.50;;;;;;;19.20;85.28;96234.72;5062514;28;20298;-53
2023/10/14 03:39:18;;;;;;;6.78;4.90;;;;;;;19.18;84.93;96239.44;5062859;28;20202;-53
2023/10/14 03:41:44;;;;;;;5.95;4.60;;;;;;;19.26;83.07;96231.22;5062956;28;20228;-53
2023/10/14 03:44:13;;;;;;;5.57;4.28;;;;;;;19.32;83.58;96254.50;5062798;28;20233;-53
2023/10/14 03:46:42;;;;;;;6.63;4.30;;;;;;;19.30;83.01;96240.50;5063066;28;20195;-53
2023/10/14 03:49:11;;;;;;;5.80;4.70;;;;;;;19.24;83.95;96235.94;5063072;28;20328;-53
2023/10/14 03:51:38;;;;;;;6.43;4.75;;;;;;;19.31;83.46;96226.03;5062132;28;20205;-53
2023/10/14 03:54:08;;;;;;;7.95;4.82;;;;;;;19.22;84.05;96225.44;5062678;28;20202;-55
2023/10/14 03:56:37;;;;;;;8.07;4.55;;;;;;;19.21;84.55;96229.16;5067829;28;20258;-54
2023/10/14 03:59:05;;;;;;;5.18;4.47;;;;;;;19.20;85.51;96232.84;5067721;28;20218;-52
2023/10/14 04:01:43;;;;;;;8.30;4.72;;;;;;;19.19;86.47;96238.44;5067104;28;20213;-53
2023/10/14 04:04:17;;;;;;;8.20;4.60;;;;;;;19.17;85.99;96248.50;5064953;28;20199;-53
2023/10/14 04:06:51;;;;;;;6.13;4.78;;;;;;;19.11;86.75;96246.66;5064725;28;20194;-53
2023/10/14 04:09:23;;;;;;;7.93;5.07;;;;;;;19.19;86.64;96254.50;5064666;28;20195;-53
2023/10/14 04:11:52;;;;;;;5.43;4.93;;;;;;;19.09;87.98;96248.75;5064520;28;20207;-52
2023/10/14 04:14:22;;;;;;;5.10;4.70;;;;;;;19.06;89.01;96254.53;5063677;28;20202;-52
2023/10/14 04:17:08;;;;;;;5.07;4.68;;;;;;;18.96;89.15;96256.75;5064332;28;20195;-53
2023/10/14 04:19:47;;;;;;;6.13;4.55;;;;;;;18.99;89.94;96259.84;5062902;28;20202;-54
2023/10/14 04:22:31;;;;;;;5.10;4.53;;;;;;;18.89;91.45;96260.25;5063630;28;20219;-55
2023/10/14 04:25:08;;;;;;;5.70;5.05;;;;;;;18.87;92.04;96262.31;5062703;28;20214;-53
2023/10/14 04:27:35;;;;;;;7.93;4.78;;;;;;;18.84;94.02;96273.47;5061815;28;21202;-54
2023/10/14 04:30:11;;;;;;;8.35;5.30;;;;;;;18.78;95.42;96268.88;5061946;28;20199;-53
2023/10/14 04:32:42;;;;;;;7.80;5.32;;;;;;;18.75;96.56;96277.34;5062319;28;20237;-55
2023/10/14 04:35:12;;;;;;;7.85;5.22;;;;;;;18.85;97.92;96268.91;5061479;28;20538;-53
2023/10/14 04:37:50;;;;;;;6.45;5.55;;;;;;;18.74;99.00;96277.56;5061891;28;20612;-53
2023/10/14 04:40:35;;;;;;;5.88;5.32;;;;;;;18.63;100.00;96276.28;5061922;28;20264;-54
2023/10/14 04:43:02;;;;;;;7.90;5.68;;;;;;;18.57;100.00;96270.88;5062034;28;20663;-53
2023/10/14 04:45:32;;;;;;;6.38;5.80;;;;;;;18.58;100.00;96273.38;5062137;28;20203;-53
2023/10/14 04:47:59;;;;;;;8.48;5.78;;;;;;;18.45;100.00;96267.97;5062318;28;20932;-53
2023/10/14 04:50:31;;;;;;;7.88;5.45;;;;;;;18.32;100.00;96274.06;5061482;28;20531;-54
2023/10/14 04:53:00;;;;;;;10.25;6.43;;;;;;;18.29;100.00;96274.47;5061869;28;20642;-53
2023/10/14 04:55:28;;;;;;;7.75;6.05;;;;;;;18.13;100.00;96287.38;5061479;28;20215;-53
2023/10/14 04:58:11;;;;;;;6.78;5.72;;;;;;;18.08;100.00;96287.13;5061428;28;20230;-54
2023/10/14 05:00:45;;;;;;;9.00;6.57;;;;;;;18.16;100.00;96284.31;5061340;28;20623;-53
2023/10/14 05:03:13;;;;;;;6.53;5.80;;;;;;;18.00;100.00;96289.97;5061579;28;20218;-53
2023/10/14 05:05:43;;;;;;;7.35;6.47;;;;;;;17.89;100.00;96286.81;5061032;28;20294;-51
2023/10/14 05:08:15;;;;;;;8.38;6.25;;;;;;;17.86;100.00;96287.22;5061068;28;20191;-52
2023/10/14 05:10:42;;;;;;;7.43;6.45;;;;;;;17.75;100.00;96286.94;5060984;28;20242;-52
2023/10/14 05:13:11;;;;;;;8.77;6.43;;;;;;;17.67;100.00;96301.31;5061280;28;20203;-53
2023/10/14 05:15:42;;;;;;;10.10;6.78;;;;;;;17.68;100.00;96294.91;5061402;28;20206;-54
2023/10/14 05:18:14;;;;;;;8.15;6.70;;;;;;;17.74;100.00;96304.84;5060726;28;20199;-52
2023/10/14 05:20:56;;;;;;;8.35;6.93;;;;;;;17.62;100.00;96303.72;5061123;28;20232;-53
2023/10/14 05:23:24;;;;;;;7.53;6.43;;;;;;;17.57;100.00;96316.03;5061362;28;20211;-55
2023/10/14 05:25:56;;;;;;;10.40;7.00;;;;;;;17.54;100.00;96317.22;5060977;28;20229;-53
2023/10/14 05:28:26;;;;;;;8.93;7.22;;;;;;;17.49;100.00;96338.38;5061229;28;20527;-53
2023/10/14 05:30:55;;;;;;;9.95;7.57;;;;;;;17.50;100.00;96353.38;5060760;28;20199;-52
2023/10/14 05:33:21;;;;;;;8.90;6.82;;;;;;;17.59;100.00;96354.09;5060939;28;20595;-53
2023/10/14 05:35:49;;;;;;;8.00;6.90;;;;;;;17.53;100.00;96353.00;5060564;28;20207;-53
2023/10/14 05:38:17;;;;;;;6.53;5.93;;;;;;;17.54;100.00;96359.16;5061005;28;20277;-54
2023/10/14 05:40:44;;;;;;;7.85;6.05;;;;;;;17.29;100.00;96350.72;5060824;28;20286;-54
2023/10/14 05:43:10;;;;;;;6.22;5.55;;;;;;;17.27;100.00;96344.75;5060608;28;20233;-54
2023/10/14 05:45:37;;;;;;;12.45;5.95;;;;;;;17.18;100.00;96357.41;5060632;28;20654;-52
2023/10/14 05:48:07;;;;;;;6.57;5.85;;;;;;;17.10;100.00;96357.53;5061144;28;20207;-52
2023/10/14 05:50:35;;;;;;;5.35;4.85;;;;;;;17.01;100.00;96357.84;5060376;28;20199;-53
2023/10/14 05:53:07;;;;;;;6.53;4.60;;;;;;;16.81;100.00;96352.28;5060977;28;20210;-53
2023/10/14 05:55:34;;;;;;;4.50;4.10;;;;;;;16.75;100.00;96353.06;5061788;28;20198;-53
2023/10/14 05:58:01;;;;;;;4.93;3.88;;;;;;;16.69;100.00;96381.31;5064494;28;20195;-53
2023/10/14 06:00:27;;;;;;;7.28;4.00;;;;;;;16.64;100.00;96367.72;5066888;28;20224;-53
2023/10/14 06:02:55;;;;;;;6.65;3.83;;;;;;;16.73;100.00;96358.56;5065829;28;20687;-56
2023/10/14 06:05:22;;;;;;;4.50;3.78;;;;;;;16.61;100.00;96384.13;5063448;28;20211;-53
2023/10/14 06:07:49;;;;;;;3.75;3.45;;;;;;;16.60;100.00;96379.78;5064079;28;20210;-52
2023/10/14 06:10:22;;;;;;;3.55;3.20;;;;;;;16.61;100.00;96373.44;5064150;28;20241;-55
2023/10/14 06:12:54;;;;;;;4.40;3.72;;;;;;;16.60;100.00;96370.94;5067745;28;20708;-54
2023/10/14 06:15:22;;;;;;;3.80;3.30;;;;;;;16.64;100.00;96381.06;5069469;28;20203;-52
2023/10/14 06:17:49;;;;;;;4.85;3.35;;;;;;;16.60;100.00;96382.44;5066176;28;20297;-52
2023/10/14 06:20:20;;;;;;;3.85;3.10;;;;;;;16.59;100.00;96375.44;5063540;28;20277;-54
2023/10/14 06:22:47;;;;;;;5.40;3.40;;;;;;;16.52;100.00;96379.84;5062432;28;20225;-53
2023/10/14 06:25:16;;;;;;;3.53;3.22;;;;;;;16.48;100.00;96375.06;5061876;28;20200;-54
2023/10/14 06:27:45;;;;;;;5.10;3.95;;;;;;;16.53;100.00;96392.19;5062173;28;20199;-53
2023/10/14 06:30:20;;;;;;;4.72;3.60;;;;;;;16.53;100.00;96392.19;5062714;28;20207;-53
2023/10/14 06:32:48;;;;;;;5.30;3.33;;;;;;;16.48;100.00;96396.41;5064441;28;20186;-55
2023/10/14 06:35:18;;;;;;;4.85;3.50;;;;;;;16.46;100.00;96387.78;5064110;28;20230;-54
2023/10/14 06:37:46;;;;;;;3.85;3.55;;;;;;;16.42;100.00;96374.81;5064090;28;20958;-53
2023/10/14 06:40:14;;;;;;;6.00;3.72;;;;;;;16.40;100.00;96376.00;5063819;28;20211;-53
2023/10/14 06:42:43;;;;;;;5.00;3.47;;;;;;;16.42;100.00;96385.47;5064052;28;20218;-54
2023/10/14 06:45:13;;;;;;;4.38;3.67;;;;;;;16.47;100.00;96381.44;5064022;28;20210;-54
2023/10/14 06:47:45;;;;;;;4.57;3.90;;;;;;;16.49;100.00;96379.38;5064280;28;20645;-54
2023/10/14 06:50:12;;;;;;;4.07;3.22;;;;;;;16.53;100.00;96384.19;5063755;28;20206;-54
2023/10/14 06:52:38;;;;;;;4.38;3.70;;;;;;;16.51;100.00;96372.84;5063772;28;20195;-54
2023/10/14 06:55:07;;;;;;;5.72;3.78;;;;;;;16.49;100.00;96382.06;5063821;28;20196;-54
2023/10/14 06:57:34;;;;;;;6.18;4.00;;;;;;;16.49;100.00;96374.88;5063893;28;20202;-54
2023/10/14 07:00:07;;;;;;;5.65;3.85;;;;;;;16.48;100.00;96378.56;5063938;28;20278;-52
2023/10/14 07:02:35;;;;;;;4.93;3.65;;;;;;;16.55;100.00;96378.63;5063112;28;20528;-54
2023/10/14 07:05:02;;;;;;;5.03;3.65;;;;;;;16.51;100.00;96378.19;5063637;28;20268;-55
2023/10/14 07:07:29;;;;;;;4.65;3.78;;;;;;;16.58;100.00;96384.47;5063293;28;20527;-54
2023/10/14 07:09:56;;;;;;;6.28;4.05;;;;;;;16.56;100.00;96381.16;5063131;28;20739;-54
2023/10/14 07:12:24;;;;;;;5.60;4.00;;;;;;;16.61;100.00;96392.13;5063356;28;20216;-54
2023/10/14 07:14:53;;;;;;;4.85;3.90;;;;;;;16.67;100.00;96402.03;5062225;28;20677;-52
2023/10/14 07:17:22;;;;;;;5.13;4.03;;;;;;;16.61;100.00;96410.81;5063487;28;20203;-55
2023/10/14 07:19:50;;;;;;;5.57;3.80;;;;;;;16.65;100.00;96411.28;5063004;28;20225;-52
2023/10/14 07:22:20;;;;;;;4.07;3.65;;;;;;;16.72;100.00;96412.97;5063442;28;20222;-55
2023/10/14 07:24:47;;;;;;;4.47;3.30;;;;;;;16.78;100.00;96422.94;5063309;28;20207;-54
2023/10/14 07:27:17;;;;;;;4.22;3.78;;;;;;;16.80;100.00;96410.22;5062908;28;20211;-53
2023/10/14 07:29:45;;;;;;;3.92;3.22;;;;;;;16.82;100.00;96418.88;5064187;28;20620;-55
2023/10/14 07:32:15;;;;;;;4.88;3.88;;;;;;;16.81;100.00;96417.22;5063382;28;20207;-53
2023/10/14 07:34:42;;;;;;;4.00;3.58;;;;;;;16.87;100.00;96420.97;5060912;28;20205;-53
2023/10/14 07:37:10;;;;;;;4.40;3.40;;;;;;;16.84;100.00;96422.19;5063146;28;20638;-52
2023/10/14 07:39:38;;;;;;;3.70;3.40;;;;;;;16.83;100.00;96419.69;5062649;28;20255;-54
2023/10/14 07:42:09;;;;;;;6.00;3.40;;;;;;;16.88;100.00;96425.31;5062789;28;20195;-54
2023/10/14 07:44:35;;;;;;;4.03;3.70;;;;;;;16.93;100.00;96426.38;5062848;28;20214;-53
2023/10/14 07:47:05;;;;;;;3.60;3.30;;;;;;;16.99;100.00;96429.34;5062725;28;20667;-52
2023/10/14 07:49:35;;;;;;;3.92;3.63;;;;;;;17.05;100.00;96409.88;5062722;28;20203;-53
2023/10/14 07:52:05;;;;;;;3.95;3.40;;;;;;;17.11;100.00;96417.16;5063442;28;20202;-53
2023/10/14 07:54:37;;;;;;;3.80;3.50;;;;;;;17.19;100.00;96419.69;5062779;28;20249;-52
2023/10/14 07:57:06;;;;;;;5.35;3.60;;;;;;;17.27;100.00;96411.56;5062869;28;20202;-52
2023/10/14 07:59:34;;;;;;;4.05;3.65;;;;;;;17.40;100.00;96409.00;5062679;28;20203;-54
2023/10/14 08:02:02;;;;;;;3.80;3.47;;;;;;;17.37;100.00;96407.56;5061161;28;20280;-52
2023/10/14 08:04:29;;;;;;;4.60;3.67;;;;;;;17.46;100.00;96413.63;5062216;28;20544;-53
2023/10/14 08:06:56;;;;;;;5.57;3.28;;;;;;;17.52;100.00;96426.22;5063122;28;20536;-54
2023/10/14 08:09:25;;;;;;;6.90;3.47;;;;;;;17.57;100.00;96423.00;5062376;28;20201;-53
2023/10/14 08:11:53;;;;;;;3.80;3.40;;;;;;;17.47;100.00;96414.41;5063649;28;20203;-54
2023/10/14 08:14:19;;;;;;;3.92;3.22;;;;;;;17.55;100.00;96414.28;5063308;28;20190;-54
2023/10/14 08:16:47;;;;;;;3.63;3.20;;;;;;;17.61;100.00;96418.91;5063082;28;20214;-53
2023/10/14 08:19:14;;;;;;;4.45;3.60;;;;;;;17.70;100.00;96407.91;5062366;28;20647;-53
2023/10/14 08:21:41;;;;;;;3.53;3.22;;;;;;;17.74;100.00;96403.81;5063713;28;20248;-53
2023/10/14 08:24:08;;;;;;;5.55;4.38;;;;;;;17.78;100.00;96391.69;5063300;28;20231;-53
2023/10/14 08:26:35;;;;;;;5.07;4.18;;;;;;;17.90;100.00;96400.00;5067003;28;20198;-54
2023/10/14 08:29:03;;;;;;;4.40;4.10;;;;;;;17.97;100.00;96392.03;5069383;28;20244;-52
2023/10/14 08:31:32;;;;;;;5.35;4.13;;;;;;;18.03;100.00;96400.09;5067517;28;20243;-54
2023/10/14 08:34:01;;;;;;;4.80;4.35;;;;;;;18.14;100.00;96404.91;5066969;28;20199;-52
2023/10/14 08:36:27;;;;;;;5.20;4.20;;;;;;;18.27;100.00;96406.88;5066168;28;20294;-54
2023/10/14 08:38:54;;;;;;;4.13;3.83;;;;;;;18.37;100.00;96413.53;5066239;28;20657;-53
2023/10/14 08:41:21;;;;;;;5.22;4.38;;;;;;;18.34;100.00;96397.03;5063582;28;20210;-54
2023/10/14 08:43:50;;;;;;;4.53;4.20;;;;;;;18.36;100.00;96403.84;5063909;28;20231;-54
2023/10/14 08:46:23;;;;;;;5.35;4.00;;;;;;;18.34;100.00;96400.53;5064180;28;20218;-53
2023/10/14 08:48:50;;;;;;;4.07;3.70;;;;;;;18.47;100.00;96410.47;5065300;28;20631;-52
2023/10/14 08:51:18;;;;;;;4.30;3.90;;;;;;;18.63;100.00;96410.22;5065445;28;20203;-53
2023/10/14 08:53:47;;;;;;;4.28;3.65;;;;;;;18.80;100.00;96406.16;5066929;28;20817;-54
2023/10/14 08:56:14;;;;;;;4.95;4.10;;;;;;;18.85;100.00;96408.22;5064477;28;20206;-53
2023/10/14 08:58:40;;;;;;;6.13;4.18;;;;;;;18.83;100.00;96411.13;5063414;28;20211;-54
2023/10/14 09:01:11;;;;;;;4.78;4.22;;;;;;;18.93;100.00;96404.53;5066984;28;20643;-53
2023/10/14 09:03:39;;;;;;;3.42;3.13;;;;;;;19.09;100.00;96397.00;5065585;28;20214;-53
2023/10/14 09:06:09;;;;;;;3.90;3.60;;;;;;;18.90;100.00;96395.06;5065219;28;20414;-53
2023/10/14 09:08:35;;;;;;;4.10;3.75;;;;;;;19.11;100.00;96402.97;5063590;28;20205;-53
2023/10/14 09:11:03;;;;;;;4.75;3.42;;;;;;;19.27;100.00;96391.06;5062160;28;20227;-53
2023/10/14 09:13:30;;;;;;;3.72;3.47;;;;;;;19.39;100.00;96389.41;5062941;28;20195;-52
2023/10/14 09:16:04;;;;;;;5.40;3.30;;;;;;;19.64;100.00;96387.81;5062732;28;20207;-59
2023/10/14 09:18:33;;;;;;;4.18;3.50;;;;;;;19.95;100.00;96389.88;5062423;28;20295;-53
2023/10/14 09:21:04;;;;;;;5.18;4.18;;;;;;;19.91;100.00;96393.22;5061899;28;20202;-52
2023/10/14 09:23:32;;;;;;;6.47;3.58;;;;;;;19.92;100.00;96384.94;5062606;28;20227;-53
2023/10/14 09:26:01;;;;;;;5.88;3.50;;;;;;;19.88;100.00;96400.63;5061535;28;20202;-53
2023/10/14 09:28:32;;;;;;;3.92;3.58;;;;;;;19.89;100.00;96390.72;5061608;28;20200;-54
2023/10/14 09:30:59;;;;;;;3.70;3.40;;;;;;;19.71;100.00;96379.78;5061937;28;20199;-52
2023/10/14 09:33:28;;;;;;;4.60;3.25;;;;;;;19.77;100.00;96382.44;5062002;28;20203;-53
2023/10/14 09:35:58;;;;;;;4.47;3.53;;;;;;;19.71;100.00;96377.91;5063236;28;20210;-53
2023/10/14 09:38:28;;;;;;;3.97;3.50;;;;;;;19.68;100.00;96380.19;5062902;28;20218;-54
2023/10/14 09:40:58;;;;;;;4.15;3.75;;;;;;;19.67;100.00;96375.84;5062262;28;20199;-53
2023/10/14 09:43:25;;;;;;;3.55;3.25;;;;;;;19.62;100.00;96379.16;5061329;28;20199;-52
2023/10/14 09:45:55;;;;;;;3.67;3.38;;;;;;;19.61;100.00;96382.88;5061190;28;20530;-53
2023/10/14 09:48:24;;;;;;;3.38;3.15;;;;;;;19.55;100.00;96394.44;5061206;28;20606;-53
2023/10/14 09:50:54;;;;;;;6.30;3.92;;;;;;;19.44;100.00;96389.66;5061279;28;20277;-52
2023/10/14 09:53:26;;;;;;;4.43;3.78;;;;;;;19.33;100.00;96374.16;5060471;28;20700;-53
2023/10/14 09:55:57;;;;;;;6.55;4.05;;;;;;;19.18;100.00;96381.53;5061534;28;20210;-52
2023/10/14 09:58:30;;;;;;;4.18;3.60;;;;;;;19.18;100.00;96373.50;5061587;28;20203;-53
2023/10/14 10:00:57;;;;;;;3.95;3.60;;;;;;;19.05;100.00;96376.16;5061419;28;20218;-53
2023/10/14 10:03:24;;;;;;;4.78;3.90;;;;;;;19.06;100.00;96375.13;5061515;28;20191;-53
2023/10/14 10:06:00;;;;;;;4.40;3.88;;;;;;;19.05;100.00;96365.44;5064423;28;20217;-53
2023/10/14 10:09:17;;;;;;;4.28;3.58;;;;;;;18.97;100.00;96379.00;5064706;28;20191;-52
2023/10/14 10:11:46;;;;;;;4.20;3.78;;;;;;;18.96;100.00;96374.66;5011440;28;20521;-52
2023/10/14 10:14:14;;;;;;;4.35;4.00;;;;;;;18.81;100.00;96389.03;5064140;28;20260;-52
2023/10/14 10:16:42;;;;;;;4.40;3.97;;;;;;;18.98;100.00;96380.66;5064576;28;20218;-53
2023/10/14 10:19:10;;;;;;;5.03;3.75;;;;;;;18.82;100.00;96381.81;5064742;28;20198;-53
2023/10/14 10:21:40;;;;;;;6.38;4.25;;;;;;;18.86;100.00;96365.16;5064146;28;20550;-53
2023/10/14 10:24:20;;;;;;;5.28;4.13;;;;;;;18.84;100.00;96369.91;5064603;28;20211;-54
2023/10/14 10:27:08;;;;;;;5.60;4.22;;;;;;;18.81;100.00;96378.31;5072030;28;20203;-57
2023/10/14 10:29:43;;;;;;;9.32;5.20;;;;;;;18.93;100.00;96373.22;5080412;28;20178;-53
2023/10/14 10:32:12;;;;;;;4.70;4.30;;;;;;;18.81;100.00;96401.63;5075935;28;20190;-52
2023/10/14 10:35:13;;;;;;;5.88;4.40;;;;;;;18.49;100.00;96391.56;5067065;28;20646;-52
2023/10/14 10:37:49;;;;;;;8.68;4.75;;;;;;;18.42;100.00;96388.84;5067816;28;20257;-52
2023/10/14 10:40:22;;;;;;;5.38;4.88;;;;;;;18.15;100.00;96374.47;5067053;28;20198;-55
2023/10/14 10:42:54;;;;;;;5.60;4.70;;;;;;;18.06;100.00;96374.81;5065849;28;20659;-54
2023/10/14 10:45:22;;;;;;;5.18;4.65;;;;;;;17.99;100.00;96390.00;5065251;28;20242;-53
2023/10/14 10:47:56;;;;;;;5.70;4.88;;;;;;;17.92;100.00;96392.63;5064981;28;20217;-54
2023/10/14 10:50:24;;;;;;;6.20;5.60;;;;;;;17.81;100.00;96385.97;5063414;28;20222;-51
2023/10/14 10:53:19;;;;;;;8.05;5.53;;;;;;;17.70;100.00;96386.50;5064052;28;20198;-52
2023/10/14 10:55:47;;;;;;;7.93;5.93;;;;;;;17.64;100.00;96381.09;5064031;28;20235;-53
2023/10/14 10:58:16;;;;;;;8.63;5.97;;;;;;;17.57;100.00;96374.88;5063026;28;20294;-52
2023/10/14 11:00:45;;;;;;;6.72;5.97;;;;;;;17.54;100.00;96386.72;5063245;28;20205;-53
2023/10/14 11:03:14;;;;;;;6.88;5.97;;;;;;;17.52;100.00;96394.13;5063686;28;20584;-54
2023/10/14 11:05:41;;;;;;;8.30;6.93;;;;;;;17.46;100.00;96373.50;5063054;28;20315;-51
2023/10/14 11:08:08;;;;;;;8.18;7.32;;;;;;;17.58;100.00;96371.16;5063508;28;20222;-54
2023/10/14 11:10:38;;;;;;;8.07;7.28;;;;;;;17.60;100.00;96369.97;5063501;28;20243;-54
2023/10/14 11:13:05;;;;;;;9.05;7.32;;;;;;;17.69;100.00;96363.44;5063882;28;20297;-53
2023/10/14 11:15:34;;;;;;;7.85;6.90;;;;;;;17.78;100.00;96364.94;5063313;28;20191;-52
2023/10/14 11:18:02;;;;;;;9.20;7.38;;;;;;;17.76;100.00;96374.19;5063645;28;20195;-53
2023/10/14 11:20:31;;;;;;;7.60;6.90;;;;;;;17.74;100.00;96374.41;5063788;28;20190;-53
2023/10/14 11:22:58;;;;;;;11.13;7.00;;;;;;;17.80;100.00;96356.72;5063339;28;20213;-55
2023/10/14 11:25:30;;;;;;;8.40;7.60;;;;;;;17.79;100.00;96369.28;5062928;28;21346;-54
2023/10/14 11:27:57;;;;;;;8.38;7.28;;;;;;;17.88;100.00;96359.28;5063116;28;20202;-54
2023/10/14 11:30:26;;;;;;;8.23;7.20;;;;;;;18.03;100.00;96354.63;5063493;28;20562;-52
2023/10/14 11:32:54;;;;;;;8.30;7.47;;;;;;;18.19;100.00;96348.13;5063531;28;20202;-54
2023/10/14 11:35:22;;;;;;;8.80;7.20;;;;;;;18.44;100.00;96351.16;5063339;28;20207;-54
2023/10/14 11:37:53;;;;;;;6.97;6.28;;;;;;;18.63;100.00;96347.78;5063663;28;20255;-53
2023/10/14 11:40:25;;;;;;;9.60;7.47;;;;;;;18.72;100.00;96347.38;5063708;28;20206;-53
2023/10/14 11:42:55;;;;;;;7.45;6.75;;;;;;;19.12;100.00;96342.97;5064022;28;20195;-52